createdAt,value
2023-05-05T00:01:20.045Z,18.77
2023-05-05T00:03:47.502Z,20.65
2023-05-05T00:06:14.857Z,17.63
2023-05-05T00:08:42.087Z,19.33
2023-05-05T00:11:09.585Z,20.42
2023-05-05T00:13:37.026Z,18.83
2023-05-05T00:16:05.003Z,21.55
2023-05-05T00:18:33.854Z,20.95
2023-05-05T00:21:01.610Z,19.77
2023-05-05T00:23:28.817Z,19.35
2023-05-05T00:25:55.930Z,20.52
2023-05-05T00:28:22.934Z,18.98
2023-05-05T00:30:50.483Z,18.98
2023-05-05T00:33:17.613Z,23.30
2023-05-05T00:35:44.696Z,20.50
2023-05-05T00:38:11.799Z,19.92
2023-05-05T00:40:38.882Z,20.58
2023-05-05T00:43:05.855Z,19.63
2023-05-05T00:45:32.855Z,20.55
2023-05-05T00:48:01.248Z,21.08
2023-05-05T00:50:30.417Z,20.60
2023-05-05T00:53:06.302Z,19.05
2023-05-05T00:55:34.885Z,20.52
2023-05-05T00:58:03.201Z,20.73
2023-05-05T01:00:30.807Z,20.38
2023-05-05T01:02:58.989Z,20.67
2023-05-05T01:05:27.853Z,21.45
2023-05-05T01:08:15.228Z,20.88
2023-05-05T01:11:07.946Z,20.48
2023-05-05T01:14:13.217Z,20.65
2023-05-05T01:16:57.208Z,20.63
2023-05-05T01:19:51.080Z,22.88
2023-05-05T01:23:13.938Z,24.50
2023-05-05T01:25:53.402Z,22.02
2023-05-05T01:29:03.191Z,21.50
2023-05-05T01:31:53.412Z,22.77
2023-05-05T01:34:31.997Z,20.73
2023-05-05T01:37:19.622Z,19.77
2023-05-05T01:39:51.522Z,21.25
2023-05-05T01:42:21.053Z,21.15
2023-05-05T01:44:49.857Z,20.92
2023-05-05T01:47:19.785Z,20.25
2023-05-05T01:49:48.941Z,20.92
2023-05-05T01:52:18.461Z,20.77
2023-05-05T01:54:46.934Z,19.80
2023-05-05T01:57:15.310Z,19.67
2023-05-05T01:59:42.541Z,20.45
2023-05-05T02:02:12.162Z,24.92
2023-05-05T02:04:44.293Z,22.15
2023-05-05T02:07:12.889Z,23.70
2023-05-05T02:09:42.543Z,21.08
2023-05-05T02:12:10.933Z,20.63
2023-05-05T02:14:39.130Z,20.90
2023-05-05T02:17:06.199Z,20.30
2023-05-05T02:19:40.368Z,20.20
2023-05-05T02:22:07.724Z,22.13
2023-05-05T02:24:34.857Z,22.25
2023-05-05T02:27:06.252Z,19.77
2023-05-05T02:29:38.093Z,20.60
2023-05-05T02:32:11.324Z,20.63
2023-05-05T02:34:41.044Z,19.80
2023-05-05T02:37:18.037Z,21.60
2023-05-05T02:39:58.818Z,20.65
2023-05-05T02:42:38.762Z,22.40
2023-05-05T02:45:12.155Z,21.08
2023-05-05T02:47:42.187Z,21.50
2023-05-05T02:50:10.412Z,21.77
2023-05-05T02:52:41.927Z,20.33
2023-05-05T02:55:11.008Z,21.30
2023-05-05T02:58:09.472Z,21.15
2023-05-05T03:00:50.683Z,21.20
2023-05-05T03:03:24.609Z,23.08
2023-05-05T03:06:05.214Z,21.80
2023-05-05T03:08:42.740Z,20.58
2023-05-05T03:11:25.017Z,22.33
2023-05-05T03:14:00.603Z,22.70
2023-05-05T03:16:29.646Z,22.30
2023-05-05T03:18:58.966Z,22.45
2023-05-05T03:21:27.501Z,22.55
2023-05-05T03:23:55.639Z,25.02
2023-05-05T03:26:23.103Z,21.92
2023-05-05T03:28:50.346Z,22.50
2023-05-05T03:31:22.512Z,21.88
2023-05-05T03:33:53.974Z,21.98
2023-05-05T03:36:24.253Z,24.45
2023-05-05T03:38:51.744Z,23.02
2023-05-05T03:41:21.816Z,23.45
2023-05-05T03:43:51.504Z,23.33
2023-05-05T03:46:19.757Z,22.73
2023-05-05T03:48:49.267Z,22.88
2023-05-05T03:51:17.258Z,22.63
2023-05-05T03:53:45.221Z,22.65
2023-05-05T03:56:13.269Z,20.85
2023-05-05T03:58:41.380Z,25.45
2023-05-05T04:01:09.261Z,24.05
2023-05-05T04:03:37.352Z,22.55
2023-05-05T04:06:06.064Z,22.10
2023-05-05T04:08:33.812Z,22.35
2023-05-05T04:11:03.294Z,23.90
2023-05-05T04:13:33.323Z,21.08
2023-05-05T04:16:01.146Z,21.98
2023-05-05T04:18:29.610Z,23.35
2023-05-05T04:20:57.319Z,22.02
2023-05-05T04:23:25.206Z,23.95
2023-05-05T04:25:53.385Z,23.33
2023-05-05T04:28:21.966Z,22.25
2023-05-05T04:30:50.147Z,22.17
2023-05-05T04:33:17.340Z,24.30
2023-05-05T04:35:48.369Z,24.00
2023-05-05T04:38:16.364Z,23.63
2023-05-05T04:40:44.311Z,23.80
2023-05-05T04:43:12.176Z,22.17
2023-05-05T04:45:40.355Z,23.58
2023-05-05T04:48:09.353Z,25.50
2023-05-05T04:50:37.352Z,24.38
2023-05-05T04:53:05.208Z,22.17
2023-05-05T04:55:34.329Z,21.83
2023-05-05T04:58:02.232Z,24.55
2023-05-05T05:00:30.563Z,25.48
2023-05-05T05:02:58.579Z,22.52
2023-05-05T05:05:26.364Z,23.17
2023-05-05T05:07:54.108Z,24.02
2023-05-05T05:10:21.569Z,22.50
2023-05-05T05:12:49.529Z,22.13
2023-05-05T05:15:17.129Z,24.15
2023-05-05T05:17:45.408Z,23.88
2023-05-05T05:20:15.412Z,25.02
2023-05-05T05:22:44.392Z,23.00
2023-05-05T05:25:18.415Z,24.95
2023-05-05T05:28:02.228Z,25.02
2023-05-05T05:30:43.392Z,24.33
2023-05-05T05:33:12.424Z,23.35
2023-05-05T05:35:40.528Z,21.08
2023-05-05T05:38:09.424Z,29.00
2023-05-05T05:40:38.439Z,23.85
2023-05-05T05:43:06.483Z,23.42
2023-05-05T05:45:36.431Z,24.58
2023-05-05T05:48:06.097Z,21.73
2023-05-05T05:50:36.442Z,24.98
2023-05-05T05:53:05.413Z,25.42
2023-05-05T05:55:33.296Z,24.02
2023-05-05T05:58:02.483Z,22.35
2023-05-05T06:00:31.156Z,22.52
2023-05-05T06:03:05.639Z,23.13
2023-05-05T06:05:36.562Z,21.23
2023-05-05T06:08:04.619Z,23.80
2023-05-05T06:10:36.527Z,21.83
2023-05-05T06:13:09.673Z,22.70
2023-05-05T06:15:41.822Z,22.50
2023-05-05T06:18:12.537Z,22.08
2023-05-05T06:20:41.142Z,23.98
2023-05-05T06:23:08.131Z,21.65
2023-05-05T06:25:40.534Z,25.35
2023-05-05T06:28:08.243Z,23.17
2023-05-05T06:30:35.243Z,21.40
2023-05-05T06:33:02.528Z,23.90
2023-05-05T06:35:30.422Z,20.48
2023-05-05T06:37:58.274Z,19.98
2023-05-05T06:40:25.555Z,21.60
2023-05-05T06:42:53.310Z,23.83
2023-05-05T06:45:25.488Z,22.63
2023-05-05T06:47:53.448Z,21.98
2023-05-05T06:50:20.550Z,33.72
2023-05-05T06:52:48.356Z,36.28
2023-05-05T06:55:17.018Z,22.25
2023-05-05T06:57:44.514Z,23.58
2023-05-05T07:00:12.130Z,20.98
2023-05-05T07:02:39.937Z,20.15
2023-05-05T07:05:08.552Z,17.50
2023-05-05T07:07:36.500Z,20.48
2023-05-05T07:10:05.715Z,17.58
2023-05-05T07:12:33.449Z,20.15
2023-05-05T07:15:12.162Z,18.38
2023-05-05T07:17:46.282Z,16.30
2023-05-05T07:20:14.649Z,16.10
2023-05-05T07:22:41.608Z,19.65
2023-05-05T07:25:09.616Z,17.75
2023-05-05T07:27:38.587Z,16.27
2023-05-05T07:30:12.417Z,15.25
2023-05-05T07:32:42.601Z,16.35
2023-05-05T07:35:10.839Z,20.00
2023-05-05T07:37:38.414Z,20.10
2023-05-05T07:40:06.884Z,15.82
2023-05-05T07:42:34.355Z,20.65
2023-05-05T07:45:01.675Z,18.63
2023-05-05T07:47:30.642Z,19.55
2023-05-05T07:49:58.598Z,21.70
2023-05-05T07:52:43.361Z,21.48
2023-05-05T07:55:12.633Z,18.65
2023-05-05T07:57:39.859Z,19.83
2023-05-05T08:00:08.294Z,14.02
2023-05-05T08:02:39.654Z,16.55
2023-05-05T08:05:08.210Z,15.27
2023-05-05T08:07:41.842Z,14.60
2023-05-05T08:10:11.639Z,14.68
2023-05-05T08:12:39.746Z,21.70
2023-05-05T08:15:08.975Z,16.42
2023-05-05T08:17:50.306Z,18.65
2023-05-05T08:20:19.689Z,17.63
2023-05-05T08:22:47.723Z,19.40
2023-05-05T08:25:15.405Z,15.07
2023-05-05T08:27:43.684Z,18.90
2023-05-05T08:30:12.740Z,21.52
2023-05-05T08:32:39.727Z,16.40
2023-05-05T08:35:08.871Z,19.02
2023-05-05T08:37:36.725Z,17.85
2023-05-05T08:40:06.093Z,19.45
2023-05-05T08:42:38.476Z,22.08
2023-05-05T08:45:08.569Z,19.67
2023-05-05T08:47:36.871Z,16.67
2023-05-05T08:50:05.902Z,17.13
2023-05-05T08:52:44.342Z,19.40
2023-05-05T08:55:56.304Z,19.25
2023-05-05T08:58:26.953Z,19.67
2023-05-05T09:00:56.438Z,19.55
2023-05-05T09:03:25.261Z,21.67
2023-05-05T09:05:52.779Z,19.55
2023-05-05T09:08:20.903Z,20.75
2023-05-05T09:10:49.042Z,20.00
2023-05-05T09:13:19.548Z,22.35
2023-05-05T09:15:46.470Z,22.67
2023-05-05T09:18:13.572Z,19.63
2023-05-05T09:20:41.854Z,21.33
2023-05-05T09:23:17.354Z,17.20
2023-05-05T09:25:46.348Z,19.33
2023-05-05T09:28:17.645Z,22.63
2023-05-05T09:30:47.604Z,18.67
2023-05-05T09:33:14.802Z,18.20
2023-05-05T09:35:55.725Z,19.75
2023-05-05T09:38:24.366Z,23.52
2023-05-05T09:40:53.189Z,18.80
2023-05-05T09:43:22.290Z,20.27
2023-05-05T09:45:50.606Z,18.40
2023-05-05T09:48:29.405Z,20.25
2023-05-05T09:50:58.023Z,17.77
2023-05-05T09:53:25.973Z,21.40
2023-05-05T09:55:57.165Z,21.83
2023-05-05T09:58:26.066Z,18.13
2023-05-05T10:00:54.229Z,20.23
2023-05-05T10:03:21.996Z,16.67
2023-05-05T10:05:50.698Z,17.80
2023-05-05T10:08:19.923Z,18.30
2023-05-05T10:10:59.574Z,21.85
2023-05-05T10:13:27.802Z,21.38
2023-05-05T10:15:56.793Z,20.73
2023-05-05T10:18:25.763Z,17.80
2023-05-05T10:21:00.578Z,20.00
2023-05-05T10:23:47.381Z,20.42
2023-05-05T10:26:16.964Z,22.73
2023-05-05T10:28:55.019Z,19.65
2023-05-05T10:31:30.151Z,18.55
2023-05-05T10:34:10.497Z,22.33
2023-05-05T10:36:39.102Z,23.10
2023-05-05T10:39:10.809Z,21.13
2023-05-05T10:41:38.514Z,23.92
2023-05-05T10:44:06.691Z,22.65
2023-05-05T10:46:33.883Z,24.05
2023-05-05T10:49:23.151Z,22.30
2023-05-05T10:52:00.689Z,24.33
2023-05-05T10:54:39.059Z,22.40
2023-05-05T10:57:10.271Z,22.80
2023-05-05T10:59:37.482Z,19.83
2023-05-05T11:02:21.325Z,22.60
2023-05-05T11:05:04.270Z,23.95
2023-05-05T11:07:32.477Z,21.02
2023-05-05T11:10:01.671Z,21.15
2023-05-05T11:12:30.062Z,20.88
2023-05-05T11:15:27.911Z,19.90
2023-05-05T11:17:56.426Z,19.27
2023-05-05T11:20:52.363Z,19.38
2023-05-05T11:23:19.395Z,22.73
2023-05-05T11:25:47.147Z,19.83
2023-05-05T11:28:16.589Z,20.38
2023-05-05T11:30:55.784Z,19.98
2023-05-05T11:33:23.731Z,18.88
2023-05-05T11:36:06.013Z,16.95
2023-05-05T11:38:45.764Z,21.35
2023-05-05T11:41:35.784Z,22.50
2023-05-05T11:44:12.443Z,21.45
2023-05-05T11:47:05.025Z,20.35
2023-05-05T11:49:34.078Z,21.77
2023-05-05T11:52:08.535Z,25.25
2023-05-05T11:54:37.038Z,25.63
2023-05-05T11:57:07.194Z,22.38
2023-05-05T11:59:39.175Z,24.90
2023-05-05T12:02:06.245Z,23.58
2023-05-05T12:04:33.376Z,21.45
2023-05-05T12:07:00.666Z,22.08
2023-05-05T12:09:27.727Z,19.95
2023-05-05T12:11:58.644Z,20.10
2023-05-05T12:14:26.042Z,18.80
2023-05-05T12:16:56.989Z,20.27
2023-05-05T12:19:29.556Z,19.15
2023-05-05T12:21:56.900Z,18.50
2023-05-05T12:24:42.942Z,23.77
2023-05-05T12:27:11.466Z,18.90
2023-05-05T12:29:38.524Z,21.48
2023-05-05T12:32:05.907Z,19.35
2023-05-05T12:34:33.369Z,19.92
2023-05-05T12:37:01.169Z,19.75
2023-05-05T12:39:37.277Z,19.13
2023-05-05T12:42:05.003Z,19.02
2023-05-05T12:44:38.722Z,22.40
2023-05-05T12:47:07.002Z,20.33
2023-05-05T12:49:51.631Z,17.40
2023-05-05T12:52:19.122Z,19.08
2023-05-05T12:55:13.073Z,20.85
2023-05-05T12:58:04.328Z,17.67
2023-05-05T13:00:31.653Z,19.00
2023-05-05T13:02:58.973Z,22.08
2023-05-05T13:05:33.409Z,18.55
2023-05-05T13:08:00.499Z,16.07
2023-05-05T13:10:28.413Z,18.25
2023-05-05T13:12:56.851Z,19.35
2023-05-05T13:15:24.758Z,20.92
2023-05-05T13:17:58.207Z,20.92
2023-05-05T13:20:25.429Z,19.70
2023-05-05T13:22:52.489Z,18.58
2023-05-05T13:25:19.427Z,18.60
2023-05-05T13:27:46.351Z,17.08
2023-05-05T13:30:13.863Z,21.42
2023-05-05T13:32:41.353Z,19.70
2023-05-05T13:35:09.408Z,19.08
2023-05-05T13:37:36.737Z,21.70
2023-05-05T13:40:04.051Z,18.98
2023-05-05T13:42:31.039Z,15.93
2023-05-05T13:44:58.096Z,19.10
2023-05-05T13:47:25.142Z,17.08
2023-05-05T13:49:52.132Z,16.55
2023-05-05T13:52:19.249Z,17.02
2023-05-05T13:54:46.200Z,19.27
2023-05-05T13:57:13.503Z,18.75
2023-05-05T13:59:40.466Z,16.60
2023-05-05T14:02:07.754Z,16.40
2023-05-05T14:04:34.796Z,17.27
2023-05-05T14:07:02.069Z,18.08
2023-05-05T14:09:29.108Z,18.40
2023-05-05T14:11:56.089Z,19.77
2023-05-05T14:14:23.212Z,16.20
2023-05-05T14:16:50.932Z,19.27
2023-05-05T14:19:17.882Z,13.88
2023-05-05T14:21:44.824Z,23.77
2023-05-05T14:24:11.810Z,15.75
2023-05-05T14:26:39.004Z,14.38
2023-05-05T14:29:06.017Z,14.80
2023-05-05T14:31:33.105Z,15.52
2023-05-05T14:34:00.038Z,14.07
2023-05-05T14:36:27.016Z,13.05
2023-05-05T14:38:54.071Z,18.60
2023-05-05T14:41:21.284Z,15.73
2023-05-05T14:43:48.228Z,15.73
2023-05-05T14:46:15.258Z,13.48
2023-05-05T14:48:42.681Z,11.27
2023-05-05T14:51:09.635Z,10.88
2023-05-05T14:53:36.733Z,13.27
2023-05-05T14:56:03.948Z,20.27
2023-05-05T14:58:31.167Z,14.75
2023-05-05T15:00:58.301Z,12.35
2023-05-05T15:03:25.571Z,13.18
2023-05-05T15:05:52.717Z,13.15
2023-05-05T15:08:19.931Z,13.38
2023-05-05T15:10:47.044Z,12.90
2023-05-05T15:13:14.376Z,11.70
2023-05-05T15:15:41.696Z,11.40
2023-05-05T15:18:08.832Z,10.88
2023-05-05T15:20:35.848Z,11.32
2023-05-05T15:23:03.201Z,11.15
2023-05-05T15:25:30.273Z,10.27
2023-05-05T15:27:58.756Z,13.18
2023-05-05T15:30:26.831Z,8.80
2023-05-05T15:32:54.133Z,15.63
2023-05-05T15:35:21.396Z,12.10
2023-05-05T15:37:48.375Z,11.85
2023-05-05T15:40:15.370Z,13.48
2023-05-05T15:42:42.383Z,12.55
2023-05-05T15:45:12.268Z,8.95
2023-05-05T15:47:39.296Z,15.93
2023-05-05T15:50:07.301Z,10.52
2023-05-05T15:52:34.548Z,10.93
2023-05-05T15:55:02.021Z,9.70
2023-05-05T15:57:29.148Z,9.35
2023-05-05T15:59:56.041Z,9.88
2023-05-05T16:02:23.131Z,10.98
2023-05-05T16:04:50.296Z,8.73
2023-05-05T16:07:17.306Z,12.77
2023-05-05T16:09:44.479Z,10.90
2023-05-05T16:12:11.541Z,9.80
2023-05-05T16:14:38.685Z,7.07
2023-05-05T16:17:05.865Z,9.25
2023-05-05T16:19:32.860Z,12.15
2023-05-05T16:21:59.910Z,11.43
2023-05-05T16:24:27.039Z,9.35
2023-05-05T16:26:54.061Z,12.98
2023-05-05T16:29:21.032Z,11.48
2023-05-05T16:31:48.335Z,11.52
2023-05-05T16:34:16.465Z,10.68
2023-05-05T16:36:44.409Z,9.40
2023-05-05T16:39:30.323Z,8.00
2023-05-05T16:41:57.472Z,9.65
2023-05-05T16:44:24.495Z,10.15
2023-05-05T16:46:51.481Z,8.57
2023-05-05T16:49:18.372Z,8.80
2023-05-05T16:51:45.417Z,9.13
2023-05-05T16:54:12.331Z,14.45
2023-05-05T16:56:39.369Z,9.13
2023-05-05T16:59:06.450Z,10.35
2023-05-05T17:01:34.858Z,9.85
2023-05-05T17:04:02.512Z,10.05
2023-05-05T17:06:33.117Z,7.85
2023-05-05T17:09:00.239Z,7.70
2023-05-05T17:11:27.280Z,7.88
2023-05-05T17:13:54.279Z,9.57
2023-05-05T17:16:21.298Z,9.15
2023-05-05T17:18:48.270Z,8.65
2023-05-05T17:21:15.274Z,10.27
2023-05-05T17:23:42.260Z,7.53
2023-05-05T17:26:09.265Z,11.18
2023-05-05T17:28:36.415Z,7.95
2023-05-05T17:31:03.398Z,9.98
2023-05-05T17:33:30.335Z,7.63
2023-05-05T17:35:57.320Z,7.85
2023-05-05T17:38:24.353Z,9.13
2023-05-05T17:40:51.282Z,7.80
2023-05-05T17:43:18.245Z,8.10
2023-05-05T17:45:46.727Z,8.57
2023-05-05T17:48:14.012Z,10.55
2023-05-05T17:50:43.184Z,7.97
2023-05-05T17:53:10.720Z,10.70
2023-05-05T17:55:37.841Z,10.88
2023-05-05T17:58:04.955Z,8.43
2023-05-05T18:00:31.919Z,9.05
2023-05-05T18:03:00.793Z,9.45
2023-05-05T18:05:27.944Z,8.32
2023-05-05T18:07:54.906Z,11.75
2023-05-05T18:10:22.040Z,11.23
2023-05-05T18:12:49.093Z,10.30
2023-05-05T18:15:16.011Z,7.47
2023-05-05T18:17:43.483Z,12.23
2023-05-05T18:20:10.886Z,9.80
2023-05-05T18:22:38.046Z,12.88
2023-05-05T18:25:07.951Z,9.98
2023-05-05T18:27:36.091Z,9.55
2023-05-05T18:30:04.782Z,12.20
2023-05-05T18:32:32.138Z,11.38
2023-05-05T18:34:59.132Z,10.35
2023-05-05T18:37:26.300Z,10.48
2023-05-05T18:39:53.259Z,10.52
2023-05-05T18:42:20.409Z,8.35
2023-05-05T18:44:47.333Z,10.38
2023-05-05T18:47:14.314Z,10.73
2023-05-05T18:49:41.297Z,11.40
2023-05-05T18:52:08.265Z,8.57
2023-05-05T18:54:37.598Z,9.50
2023-05-05T18:57:05.452Z,9.95
2023-05-05T18:59:32.394Z,9.52
2023-05-05T19:01:59.640Z,9.10
2023-05-05T19:04:31.226Z,11.48
2023-05-05T19:06:59.650Z,9.38
2023-05-05T19:09:26.772Z,8.30
2023-05-05T19:11:53.848Z,8.23
2023-05-05T19:14:22.170Z,9.07
2023-05-05T19:16:52.240Z,9.95
2023-05-05T19:19:19.215Z,8.38
2023-05-05T19:21:47.019Z,8.77
2023-05-05T19:24:15.361Z,7.80
2023-05-05T19:26:44.208Z,7.80
2023-05-05T19:29:11.264Z,9.70
2023-05-05T19:31:39.582Z,10.32
2023-05-05T19:34:12.428Z,11.45
2023-05-05T19:36:39.700Z,7.82
2023-05-05T19:39:06.699Z,8.43
2023-05-05T19:41:35.304Z,10.07
2023-05-05T19:44:04.183Z,9.18
2023-05-05T19:46:31.631Z,11.18
2023-05-05T19:48:58.626Z,9.88
2023-05-05T19:51:27.241Z,10.05
2023-05-05T19:53:54.429Z,8.70
2023-05-05T19:56:22.910Z,12.10
2023-05-05T19:58:54.918Z,9.23
2023-05-05T20:01:22.257Z,10.38
2023-05-05T20:03:49.503Z,8.02
2023-05-05T20:06:16.736Z,10.32
2023-05-05T20:08:43.781Z,13.05
2023-05-05T20:11:10.816Z,9.23
2023-05-05T20:13:39.021Z,9.98
2023-05-05T20:16:06.570Z,12.57
2023-05-05T20:18:33.846Z,10.82
2023-05-05T20:21:02.528Z,13.02
2023-05-05T20:23:29.881Z,11.57
2023-05-05T20:25:57.189Z,11.25
2023-05-05T20:28:24.307Z,11.93
2023-05-05T20:30:51.406Z,12.57
2023-05-05T20:33:18.469Z,10.77
2023-05-05T20:35:45.741Z,13.68
2023-05-05T20:38:12.718Z,11.57
2023-05-05T20:40:40.106Z,14.20
2023-05-05T20:43:07.132Z,12.38
2023-05-05T20:45:34.911Z,15.15
2023-05-05T20:48:01.959Z,16.10
2023-05-05T20:50:28.983Z,13.82
2023-05-05T20:52:56.041Z,12.32
2023-05-05T20:55:23.802Z,10.75
2023-05-05T20:57:50.968Z,12.45
2023-05-05T21:00:23.863Z,9.52
2023-05-05T21:02:50.961Z,11.25
2023-05-05T21:05:18.123Z,9.60
2023-05-05T21:07:45.264Z,9.40
2023-05-05T21:10:12.497Z,9.02
2023-05-05T21:12:40.636Z,8.05
2023-05-05T21:15:08.633Z,9.43
2023-05-05T21:17:36.056Z,9.43
2023-05-05T21:20:03.195Z,8.25
2023-05-05T21:22:30.678Z,7.53
2023-05-05T21:25:21.069Z,6.82
2023-05-05T21:27:49.077Z,8.00
2023-05-05T21:30:17.124Z,6.32
2023-05-05T21:32:44.674Z,9.73
2023-05-05T21:35:11.884Z,8.25
2023-05-05T21:37:39.589Z,6.93
2023-05-05T21:40:13.530Z,5.75
2023-05-05T21:42:42.061Z,5.00
2023-05-05T21:45:10.807Z,7.95
2023-05-05T21:47:37.991Z,5.47
2023-05-05T21:50:05.407Z,7.40
2023-05-05T21:52:32.475Z,7.35
2023-05-05T21:54:59.516Z,6.72
2023-05-05T21:57:26.642Z,6.88
2023-05-05T21:59:53.553Z,7.55
2023-05-05T22:02:20.530Z,5.80
2023-05-05T22:04:48.922Z,4.75
2023-05-05T22:07:16.036Z,6.40
2023-05-05T22:09:43.393Z,5.05
2023-05-05T22:12:10.374Z,4.80
2023-05-05T22:14:37.345Z,4.90
2023-05-05T22:17:04.308Z,4.63
2023-05-05T22:19:31.558Z,5.10
2023-05-05T22:21:58.938Z,7.18
2023-05-05T22:24:25.918Z,6.22
2023-05-05T22:26:53.678Z,5.63
2023-05-05T22:29:20.632Z,4.90
2023-05-05T22:31:47.694Z,6.28
2023-05-05T22:34:14.821Z,5.55
2023-05-05T22:36:42.237Z,5.00
2023-05-05T22:39:09.330Z,6.18
2023-05-05T22:41:36.520Z,7.30
2023-05-05T22:44:03.501Z,5.47
2023-05-05T22:46:30.596Z,4.65
2023-05-05T22:48:57.635Z,7.13
2023-05-05T22:51:24.607Z,5.47
2023-05-05T22:53:51.585Z,6.43
2023-05-05T22:56:18.484Z,5.78
2023-05-05T22:58:46.596Z,5.35
2023-05-05T23:01:13.648Z,4.63
2023-05-05T23:03:41.502Z,5.82
2023-05-05T23:06:08.485Z,4.78
2023-05-05T23:08:35.387Z,5.20
2023-05-05T23:11:02.666Z,5.18
2023-05-05T23:13:29.628Z,5.93
2023-05-05T23:15:56.521Z,9.45
2023-05-05T23:18:23.448Z,12.98
2023-05-05T23:20:50.343Z,20.38
2023-05-05T23:23:17.243Z,16.75
2023-05-05T23:25:44.645Z,14.23
2023-05-05T23:28:11.724Z,12.52
2023-05-05T23:30:38.665Z,10.07
2023-05-05T23:33:05.814Z,8.20
2023-05-05T23:35:32.831Z,7.30
2023-05-05T23:37:59.929Z,8.35
2023-05-05T23:40:26.959Z,8.20
2023-05-05T23:42:53.908Z,6.60
2023-05-05T23:45:20.896Z,11.35
2023-05-05T23:47:47.873Z,9.70
2023-05-05T23:50:14.982Z,8.43
2023-05-05T23:52:41.981Z,8.10
2023-05-05T23:55:10.216Z,8.48
2023-05-05T23:57:37.522Z,7.82
